sensor_id;sensor_type;location;lat;lon;timestamp;pressure;altitude;pressure_sealevel;temperature;humidity
74921;BME280;63483;47.384;8.860;2023-02-14T00:02:05;96323.25;;;-1.82;48.68
74921;BME280;63483;47.384;8.860;2023-02-14T00:04:30;96330.94;;;-1.82;48.68
74921;BME280;63483;47.384;8.860;2023-02-14T00:06:56;96328.44;;;-1.83;48.66
74921;BME280;63483;47.384;8.860;2023-02-14T00:09:22;96321.63;;;-1.84;48.42
74921;BME280;63483;47.384;8.860;2023-02-14T00:11:47;96321.63;;;-1.84;48.08
74921;BME280;63483;47.384;8.860;2023-02-14T00:14:14;96320.75;;;-1.83;48.68
74921;BME280;63483;47.384;8.860;2023-02-14T00:16:58;96323.31;;;-1.83;48.56
74921;BME280;63483;47.384;8.860;2023-02-14T00:19:24;96326.78;;;-1.84;48.40
74921;BME280;63483;47.384;8.860;2023-02-14T00:21:49;96326.78;;;-1.84;47.94
74921;BME280;63483;47.384;8.860;2023-02-14T00:24:17;96327.59;;;-1.84;48.01
74921;BME280;63483;47.384;8.860;2023-02-14T00:26:43;96333.69;;;-1.86;48.08
74921;BME280;63483;47.384;8.860;2023-02-14T00:29:21;96331.97;;;-1.86;47.84
74921;BME280;63483;47.384;8.860;2023-02-14T00:31:47;96338.00;;;-1.87;47.88
74921;BME280;63483;47.384;8.860;2023-02-14T00:34:14;96335.50;;;-1.88;47.99
74921;BME280;63483;47.384;8.860;2023-02-14T00:36:40;96338.94;;;-1.90;47.91
74921;BME280;63483;47.384;8.860;2023-02-14T00:39:07;96340.75;;;-1.92;48.06
74921;BME280;63483;47.384;8.860;2023-02-14T00:41:33;96342.56;;;-1.94;47.67
74921;BME280;63483;47.384;8.860;2023-02-14T00:43:58;96335.75;;;-1.95;47.94
74921;BME280;63483;47.384;8.860;2023-02-14T00:46:24;96336.56;;;-1.94;47.47
74921;BME280;63483;47.384;8.860;2023-02-14T00:48:50;96337.41;;;-1.94;47.66
74921;BME280;63483;47.384;8.860;2023-02-14T00:51:16;96334.91;;;-1.95;48.10
74921;BME280;63483;47.384;8.860;2023-02-14T00:53:43;96333.22;;;-1.96;48.07
74921;BME280;63483;47.384;8.860;2023-02-14T00:56:09;96328.16;;;-1.98;48.12
74921;BME280;63483;47.384;8.860;2023-02-14T00:58:34;96323.91;;;-1.99;48.21
74921;BME280;63483;47.384;8.860;2023-02-14T01:01:00;96331.69;;;-2.00;47.84
74921;BME280;63483;47.384;8.860;2023-02-14T01:03:25;96329.28;;;-2.49;49.04
74921;BME280;63483;47.384;8.860;2023-02-14T01:05:51;96330.25;;;-3.24;43.41
74921;BME280;63483;47.384;8.860;2023-02-14T01:08:18;96338.63;;;-3.70;44.03
74921;BME280;63483;47.384;8.860;2023-02-14T01:10:43;96326.50;;;-4.18;43.24
74921;BME280;63483;47.384;8.860;2023-02-14T01:13:10;96334.78;;;-4.66;43.20
74921;BME280;63483;47.384;8.860;2023-02-14T01:15:40;96332.22;;;-4.96;43.73
74921;BME280;63483;47.384;8.860;2023-02-14T01:18:06;96334.69;;;-4.93;44.66
74921;BME280;63483;47.384;8.860;2023-02-14T01:20:32;96327.16;;;-4.98;45.10
74921;BME280;63483;47.384;8.860;2023-02-14T01:22:57;96318.81;;;-5.04;43.86
74921;BME280;63483;47.384;8.860;2023-02-14T01:25:23;96319.59;;;-5.02;43.98
74921;BME280;63483;47.384;8.860;2023-02-14T01:27:48;96320.00;;;-5.16;43.26
74921;BME280;63483;47.384;8.860;2023-02-14T01:30:14;96318.22;;;-5.46;43.21
74921;BME280;63483;47.384;8.860;2023-02-14T01:32:39;96314.78;;;-5.45;42.25
74921;BME280;63483;47.384;8.860;2023-02-14T01:35:06;96321.66;;;-5.47;42.75
74921;BME280;63483;47.384;8.860;2023-02-14T01:37:32;96313.69;;;-5.36;43.41
74921;BME280;63483;47.384;8.860;2023-02-14T01:39:58;96310.97;;;-5.28;43.19
74921;BME280;63483;47.384;8.860;2023-02-14T01:42:23;96303.59;;;-5.08;45.97
74921;BME280;63483;47.384;8.860;2023-02-14T01:47:15;96306.00;;;-5.34;54.95
74921;BME280;63483;47.384;8.860;2023-02-14T01:49:47;96308.06;;;-5.80;49.38
74921;BME280;63483;47.384;8.860;2023-02-14T01:52:18;96307.53;;;-6.31;48.33
74921;BME280;63483;47.384;8.860;2023-02-14T01:54:51;96297.25;;;-6.65;48.44
74921;BME280;63483;47.384;8.860;2023-02-14T01:57:19;96311.28;;;-6.85;48.35
74921;BME280;63483;47.384;8.860;2023-02-14T01:59:52;96302.50;;;-7.13;48.75
74921;BME280;63483;47.384;8.860;2023-02-14T02:02:19;96305.03;;;-7.10;49.96
74921;BME280;63483;47.384;8.860;2023-02-14T02:04:50;96306.91;;;-6.79;48.57
74921;BME280;63483;47.384;8.860;2023-02-14T02:07:21;96302.50;;;-6.71;49.07
74921;BME280;63483;47.384;8.860;2023-02-14T02:09:57;96292.16;;;-6.65;49.15
74921;BME280;63483;47.384;8.860;2023-02-14T02:12:24;96295.25;;;-6.90;48.56
74921;BME280;63483;47.384;8.860;2023-02-14T02:14:52;96300.75;;;-6.69;49.11
74921;BME280;63483;47.384;8.860;2023-02-14T02:20:19;96276.88;;;-6.65;47.42
74921;BME280;63483;47.384;8.860;2023-02-14T02:53:28;96275.81;;;-6.94;54.00
74921;BME280;63483;47.384;8.860;2023-02-14T02:56:24;96278.16;;;-7.27;50.43
74921;BME280;63483;47.384;8.860;2023-02-14T02:59:18;96274.69;;;-7.23;50.74
74921;BME280;63483;47.384;8.860;2023-02-14T03:04:20;96268.59;;;-7.58;49.99
74921;BME280;63483;47.384;8.860;2023-02-14T03:07:06;96271.88;;;-7.53;49.70
74921;BME280;63483;47.384;8.860;2023-02-14T03:09:57;96267.78;;;-7.60;50.05
74921;BME280;63483;47.384;8.860;2023-02-14T03:17:36;96264.75;;;-7.35;49.75
74921;BME280;63483;47.384;8.860;2023-02-14T03:23:26;96275.81;;;-7.36;48.15
74921;BME280;63483;47.384;8.860;2023-02-14T03:26:02;96269.78;;;-7.32;47.80
74921;BME280;63483;47.384;8.860;2023-02-14T03:28:52;96271.56;;;-7.37;47.61
74921;BME280;63483;47.384;8.860;2023-02-14T03:31:45;96273.03;;;-7.24;48.18
74921;BME280;63483;47.384;8.860;2023-02-14T03:37:20;96273.03;;;-7.24;46.56
74921;BME280;63483;47.384;8.860;2023-02-14T03:42:28;96274.88;;;-7.32;45.09
74921;BME280;63483;47.384;8.860;2023-02-14T03:44:56;96275.88;;;-7.39;44.48
74921;BME280;63483;47.384;8.860;2023-02-14T03:47:24;96269.47;;;-7.59;44.83
74921;BME280;63483;47.384;8.860;2023-02-14T03:49:58;96273.13;;;-7.74;44.87
74921;BME280;63483;47.384;8.860;2023-02-14T03:52:26;96271.22;;;-7.62;44.47
74921;BME280;63483;47.384;8.860;2023-02-14T03:54:55;96273.03;;;-7.24;49.43
74921;BME280;63483;47.384;8.860;2023-02-14T03:57:29;96281.75;;;-7.37;63.21
74921;BME280;63483;47.384;8.860;2023-02-14T03:59:58;96285.41;;;-7.50;53.54
74921;BME280;63483;47.384;8.860;2023-02-14T04:02:28;96282.41;;;-7.71;51.49
74921;BME280;63483;47.384;8.860;2023-02-14T04:04:57;96279.16;;;-7.79;50.32
74921;BME280;63483;47.384;8.860;2023-02-14T04:07:24;96274.50;;;-8.04;50.73
74921;BME280;63483;47.384;8.860;2023-02-14T04:09:49;96283.03;;;-8.07;50.90
74921;BME280;63483;47.384;8.860;2023-02-14T04:12:16;96278.47;;;-7.89;50.49
74921;BME280;63483;47.384;8.860;2023-02-14T04:14:42;96285.63;;;-8.11;49.86
74921;BME280;63483;47.384;8.860;2023-02-14T04:17:07;96288.38;;;-8.24;50.12
74921;BME280;63483;47.384;8.860;2023-02-14T04:19:51;96284.22;;;-8.29;50.00
74921;BME280;63483;47.384;8.860;2023-02-14T04:22:17;96289.31;;;-8.29;49.64
74921;BME280;63483;47.384;8.860;2023-02-14T04:24:43;96286.09;;;-8.39;49.43
74921;BME280;63483;47.384;8.860;2023-02-14T04:27:08;96279.78;;;-8.16;50.06
74921;BME280;63483;47.384;8.860;2023-02-14T04:29:42;96281.53;;;-8.18;49.62
74921;BME280;63483;47.384;8.860;2023-02-14T04:32:10;96282.94;;;-8.02;49.42
74921;BME280;63483;47.384;8.860;2023-02-14T04:34:36;96284.44;;;-7.90;49.16
74921;BME280;63483;47.384;8.860;2023-02-14T04:37:02;96287.59;;;-7.77;48.15
74921;BME280;63483;47.384;8.860;2023-02-14T04:39:27;96280.16;;;-7.41;49.77
74921;BME280;63483;47.384;8.860;2023-02-14T04:41:53;96279.97;;;-6.91;51.70
74921;BME280;63483;47.384;8.860;2023-02-14T04:44:18;96272.38;;;-6.54;51.99
74921;BME280;63483;47.384;8.860;2023-02-14T04:46:44;96268.25;;;-6.23;52.19
74921;BME280;63483;47.384;8.860;2023-02-14T04:49:10;96271.00;;;-5.97;51.24
74921;BME280;63483;47.384;8.860;2023-02-14T04:51:35;96272.16;;;-5.74;51.26
74921;BME280;63483;47.384;8.860;2023-02-14T04:54:00;96272.50;;;-5.55;51.59
74921;BME280;63483;47.384;8.860;2023-02-14T04:56:26;96270.41;;;-5.40;50.75
74921;BME280;63483;47.384;8.860;2023-02-14T04:58:52;96278.53;;;-5.26;51.08
74921;BME280;63483;47.384;8.860;2023-02-14T05:01:18;96262.03;;;-5.14;50.55
74921;BME280;63483;47.384;8.860;2023-02-14T05:03:43;96267.63;;;-5.01;50.99
74921;BME280;63483;47.384;8.860;2023-02-14T05:06:09;96264.75;;;-4.91;50.14
74921;BME280;63483;47.384;8.860;2023-02-14T05:08:34;96264.47;;;-4.81;50.40
74921;BME280;63483;47.384;8.860;2023-02-14T05:10:59;96262.59;;;-4.75;50.36
74921;BME280;63483;47.384;8.860;2023-02-14T05:13:24;96264.94;;;-4.68;49.70
74921;BME280;63483;47.384;8.860;2023-02-14T05:15:50;96268.19;;;-4.63;49.83
74921;BME280;63483;47.384;8.860;2023-02-14T05:18:15;96262.91;;;-4.57;49.76
74921;BME280;63483;47.384;8.860;2023-02-14T05:20:41;96265.31;;;-4.52;49.30
74921;BME280;63483;47.384;8.860;2023-02-14T05:23:06;96261.75;;;-4.47;49.50
74921;BME280;63483;47.384;8.860;2023-02-14T05:25:40;96268.38;;;-4.41;49.60
74921;BME280;63483;47.384;8.860;2023-02-14T05:28:06;96270.81;;;-4.37;48.94
74921;BME280;63483;47.384;8.860;2023-02-14T05:30:31;96270.72;;;-4.33;48.77
74921;BME280;63483;47.384;8.860;2023-02-14T05:32:57;96272.25;;;-4.29;49.15
74921;BME280;63483;47.384;8.860;2023-02-14T05:35:22;96268.84;;;-4.28;49.16
74921;BME280;63483;47.384;8.860;2023-02-14T05:37:47;96268.00;;;-4.29;49.44
74921;BME280;63483;47.384;8.860;2023-02-14T05:40:13;96274.81;;;-4.29;49.69
74921;BME280;63483;47.384;8.860;2023-02-14T05:42:40;96274.81;;;-4.29;49.25
74921;BME280;63483;47.384;8.860;2023-02-14T05:45:06;96285.88;;;-4.27;49.55
74921;BME280;63483;47.384;8.860;2023-02-14T05:47:31;96283.22;;;-4.24;48.66
74921;BME280;63483;47.384;8.860;2023-02-14T05:49:57;96283.09;;;-4.21;49.09
74921;BME280;63483;47.384;8.860;2023-02-14T05:52:22;96285.56;;;-4.18;48.47
74921;BME280;63483;47.384;8.860;2023-02-14T05:54:47;96285.47;;;-4.15;49.12
74921;BME280;63483;47.384;8.860;2023-02-14T05:57:13;96271.03;;;-4.18;48.19
74921;BME280;63483;47.384;8.860;2023-02-14T05:59:38;96274.50;;;-4.19;48.42
74921;BME280;63483;47.384;8.860;2023-02-14T06:02:04;96287.25;;;-4.17;48.80
74921;BME280;63483;47.384;8.860;2023-02-14T06:04:29;96280.44;;;-4.18;48.56
74921;BME280;63483;47.384;8.860;2023-02-14T06:06:54;96277.00;;;-4.17;48.48
74921;BME280;63483;47.384;8.860;2023-02-14T06:09:20;96290.63;;;-4.16;48.92
74921;BME280;63483;47.384;8.860;2023-02-14T06:11:46;96272.66;;;-4.15;48.52
74921;BME280;63483;47.384;8.860;2023-02-14T06:14:11;96270.06;;;-4.13;48.02
74921;BME280;63483;47.384;8.860;2023-02-14T06:16:37;96276.00;;;-4.13;48.04
74921;BME280;63483;47.384;8.860;2023-02-14T06:19:02;96288.81;;;-4.13;48.36
74921;BME280;63483;47.384;8.860;2023-02-14T06:21:27;96283.63;;;-4.10;47.91
74921;BME280;63483;47.384;8.860;2023-02-14T06:23:53;96281.00;;;-4.08;47.82
74921;BME280;63483;47.384;8.860;2023-02-14T06:26:18;96280.94;;;-4.07;47.70
74921;BME280;63483;47.384;8.860;2023-02-14T06:28:43;96280.03;;;-4.06;47.45
74921;BME280;63483;47.384;8.860;2023-02-14T06:31:14;96291.97;;;-4.05;48.20
74921;BME280;63483;47.384;8.860;2023-02-14T06:33:40;96295.41;;;-4.06;48.21
74921;BME280;63483;47.384;8.860;2023-02-14T06:36:06;96296.97;;;-4.02;47.91
74921;BME280;63483;47.384;8.860;2023-02-14T06:38:31;96302.25;;;-4.06;47.80
74921;BME280;63483;47.384;8.860;2023-02-14T06:41:04;96304.00;;;-4.07;48.05
74921;BME280;63483;47.384;8.860;2023-02-14T06:43:30;96301.44;;;-4.07;48.04
74921;BME280;63483;47.384;8.860;2023-02-14T06:45:55;96310.81;;;-4.07;47.87
74921;BME280;63483;47.384;8.860;2023-02-14T06:48:21;96311.63;;;-4.05;47.88
74921;BME280;63483;47.384;8.860;2023-02-14T06:50:46;96310.66;;;-4.03;47.72
74921;BME280;63483;47.384;8.860;2023-02-14T06:53:11;96305.63;;;-4.06;47.70
74921;BME280;63483;47.384;8.860;2023-02-14T06:55:37;96303.94;;;-4.60;43.92
74921;BME280;63483;47.384;8.860;2023-02-14T06:58:02;96315.63;;;-5.13;41.92
74921;BME280;63483;47.384;8.860;2023-02-14T07:00:28;96310.44;;;-5.41;42.37
74921;BME280;63483;47.384;8.860;2023-02-14T07:02:53;96315.59;;;-5.75;41.92
74921;BME280;63483;47.384;8.860;2023-02-14T07:05:21;96305.97;;;-6.00;41.76
74921;BME280;63483;47.384;8.860;2023-02-14T07:07:47;96310.69;;;-6.19;42.33
74921;BME280;63483;47.384;8.860;2023-02-14T07:10:12;96310.44;;;-6.46;41.52
74921;BME280;63483;47.384;8.860;2023-02-14T07:12:39;96307.81;;;-6.80;41.45
74921;BME280;63483;47.384;8.860;2023-02-14T07:15:09;96305.78;;;-7.07;41.91
74921;BME280;63483;47.384;8.860;2023-02-14T07:17:35;96314.97;;;-6.59;46.71
74921;BME280;63483;47.384;8.860;2023-02-14T07:20:01;96308.72;;;-6.85;59.41
74921;BME280;63483;47.384;8.860;2023-02-14T07:22:27;96308.44;;;-7.11;50.24
74921;BME280;63483;47.384;8.860;2023-02-14T07:24:52;96309.03;;;-7.42;48.58
74921;BME280;63483;47.384;8.860;2023-02-14T07:27:18;96313.41;;;-7.50;49.08
74921;BME280;63483;47.384;8.860;2023-02-14T07:29:43;96321.59;;;-7.81;48.91
74921;BME280;63483;47.384;8.860;2023-02-14T07:32:08;96317.13;;;-7.68;48.22
74921;BME280;63483;47.384;8.860;2023-02-14T07:34:34;96307.19;;;-7.82;48.49
74921;BME280;63483;47.384;8.860;2023-02-14T07:37:00;96309.81;;;-7.87;48.99
74921;BME280;63483;47.384;8.860;2023-02-14T07:39:26;96307.22;;;-7.84;49.77
74921;BME280;63483;47.384;8.860;2023-02-14T07:41:51;96303.59;;;-7.71;49.40
74921;BME280;63483;47.384;8.860;2023-02-14T07:44:17;96306.03;;;-7.64;49.31
74921;BME280;63483;47.384;8.860;2023-02-14T07:46:43;96295.75;;;-7.60;48.30
74921;BME280;63483;47.384;8.860;2023-02-14T07:49:08;96304.13;;;-7.51;48.38
74921;BME280;63483;47.384;8.860;2023-02-14T07:51:34;96302.66;;;-7.65;47.76
74921;BME280;63483;47.384;8.860;2023-02-14T07:53:59;96298.00;;;-7.90;47.45
74921;BME280;63483;47.384;8.860;2023-02-14T07:56:24;96304.66;;;-7.82;48.18
74921;BME280;63483;47.384;8.860;2023-02-14T07:58:50;96301.19;;;-7.78;47.25
74921;BME280;63483;47.384;8.860;2023-02-14T08:01:16;96306.19;;;-7.72;47.59
74921;BME280;63483;47.384;8.860;2023-02-14T08:03:41;96292.44;;;-7.62;48.11
74921;BME280;63483;47.384;8.860;2023-02-14T08:06:10;96302.44;;;-7.54;46.77
74921;BME280;63483;47.384;8.860;2023-02-14T08:08:36;96298.09;;;-7.49;46.51
74921;BME280;63483;47.384;8.860;2023-02-14T08:11:02;96293.03;;;-7.50;45.79
74921;BME280;63483;47.384;8.860;2023-02-14T08:13:27;96294.59;;;-7.43;46.54
74921;BME280;63483;47.384;8.860;2023-02-14T08:15:53;96286.81;;;-7.34;46.99
74921;BME280;63483;47.384;8.860;2023-02-14T08:18:40;96287.56;;;-7.29;47.03
74921;BME280;63483;47.384;8.860;2023-02-14T08:21:08;96289.06;;;-7.20;46.36
74921;BME280;63483;47.384;8.860;2023-02-14T08:23:34;96279.91;;;-6.88;50.79
74921;BME280;63483;47.384;8.860;2023-02-14T08:26:00;96290.03;;;-7.26;62.50
74921;BME280;63483;47.384;8.860;2023-02-14T08:28:26;96284.69;;;-7.13;58.04
74921;BME280;63483;47.384;8.860;2023-02-14T08:30:52;96276.38;;;-7.22;53.46
74921;BME280;63483;47.384;8.860;2023-02-14T08:33:18;96278.06;;;-7.21;51.22
74921;BME280;63483;47.384;8.860;2023-02-14T08:35:44;96264.50;;;-7.23;50.68
74921;BME280;63483;47.384;8.860;2023-02-14T08:38:10;96266.13;;;-7.19;51.90
74921;BME280;63483;47.384;8.860;2023-02-14T08:40:36;96270.00;;;-7.01;51.18
74921;BME280;63483;47.384;8.860;2023-02-14T08:43:03;96268.22;;;-6.95;50.13
74921;BME280;63483;47.384;8.860;2023-02-14T08:45:29;96268.97;;;-6.92;51.60
74921;BME280;63483;47.384;8.860;2023-02-14T08:48:00;96257.84;;;-6.88;52.97
74921;BME280;63483;47.384;8.860;2023-02-14T08:50:25;96261.72;;;-6.71;51.88
74921;BME280;63483;47.384;8.860;2023-02-14T08:52:51;96263.53;;;-6.76;51.97
74921;BME280;63483;47.384;8.860;2023-02-14T08:55:16;96270.75;;;-6.56;53.27
74921;BME280;63483;47.384;8.860;2023-02-14T08:57:41;96269.69;;;-6.48;53.90
74921;BME280;63483;47.384;8.860;2023-02-14T09:00:07;96264.03;;;-6.23;53.81
74921;BME280;63483;47.384;8.860;2023-02-14T09:02:34;96268.66;;;-6.04;54.55
74921;BME280;63483;47.384;8.860;2023-02-14T09:04:59;96268.22;;;-5.86;55.06
74921;BME280;63483;47.384;8.860;2023-02-14T09:07:25;96268.53;;;-5.65;55.53
74921;BME280;63483;47.384;8.860;2023-02-14T09:09:50;96269.16;;;-5.57;58.27
74921;BME280;63483;47.384;8.860;2023-02-14T09:12:15;96267.44;;;-5.25;57.52
74921;BME280;63483;47.384;8.860;2023-02-14T09:14:42;96253.22;;;-5.04;55.74
74921;BME280;63483;47.384;8.860;2023-02-14T09:17:09;96258.06;;;-4.95;55.56
74921;BME280;63483;47.384;8.860;2023-02-14T09:19:36;96263.56;;;-4.79;57.14
74921;BME280;63483;47.384;8.860;2023-02-14T09:22:03;96253.03;;;-4.69;58.90
74921;BME280;63483;47.384;8.860;2023-02-14T09:24:30;96256.31;;;-4.64;60.53
74921;BME280;63483;47.384;8.860;2023-02-14T09:26:56;96258.13;;;-4.41;60.99
74921;BME280;63483;47.384;8.860;2023-02-14T09:29:23;96249.94;;;-4.24;59.29
74921;BME280;63483;47.384;8.860;2023-02-14T09:31:53;96244.91;;;-4.01;60.30
74921;BME280;63483;47.384;8.860;2023-02-14T09:34:18;96247.56;;;-4.04;64.22
74921;BME280;63483;47.384;8.860;2023-02-14T09:37:02;96249.88;;;-3.96;61.15
74921;BME280;63483;47.384;8.860;2023-02-14T09:39:27;96243.72;;;-3.90;59.05
74921;BME280;63483;47.384;8.860;2023-02-14T09:47:38;96236.69;;;-3.85;56.23
74921;BME280;63483;47.384;8.860;2023-02-14T09:50:28;96227.38;;;-3.86;61.05
74921;BME280;63483;47.384;8.860;2023-02-14T09:52:59;96233.84;;;-3.51;57.64
74921;BME280;63483;47.384;8.860;2023-02-14T09:55:40;96234.56;;;-3.47;56.86
74921;BME280;63483;47.384;8.860;2023-02-14T09:58:13;96233.00;;;-3.27;56.01
74921;BME280;63483;47.384;8.860;2023-02-14T10:00:47;96232.06;;;-3.25;56.04
74921;BME280;63483;47.384;8.860;2023-02-14T10:06:31;96222.69;;;-2.36;58.86
74921;BME280;63483;47.384;8.860;2023-02-14T10:11:44;96216.19;;;-2.02;59.09
74921;BME280;63483;47.384;8.860;2023-02-14T10:14:13;96214.63;;;-1.65;57.64
74921;BME280;63483;47.384;8.860;2023-02-14T10:19:22;96215.31;;;-1.22;56.98
74921;BME280;63483;47.384;8.860;2023-02-14T10:22:05;96201.78;;;-1.06;56.38
74921;BME280;63483;47.384;8.860;2023-02-14T10:24:38;96210.97;;;-0.81;55.56
74921;BME280;63483;47.384;8.860;2023-02-14T10:29:39;96197.63;;;-0.71;55.98
74921;BME280;63483;47.384;8.860;2023-02-14T10:32:12;96196.31;;;-0.79;55.90
74921;BME280;63483;47.384;8.860;2023-02-14T10:34:40;96191.06;;;-0.59;55.06
74921;BME280;63483;47.384;8.860;2023-02-14T10:50:24;96179.72;;;-0.02;54.87
74921;BME280;63483;47.384;8.860;2023-02-14T10:58:18;96170.63;;;0.08;54.98
74921;BME280;63483;47.384;8.860;2023-02-14T11:01:15;96169.47;;;0.47;54.31
74921;BME280;63483;47.384;8.860;2023-02-14T11:03:55;96169.44;;;0.65;53.35
74921;BME280;63483;47.384;8.860;2023-02-14T11:06:22;96163.25;;;0.51;53.84
74921;BME280;63483;47.384;8.860;2023-02-14T11:08:47;96162.63;;;0.30;54.79
74921;BME280;63483;47.384;8.860;2023-02-14T11:11:20;96158.97;;;0.68;53.72
74921;BME280;63483;47.384;8.860;2023-02-14T11:13:48;96160.47;;;0.72;54.03
74921;BME280;63483;47.384;8.860;2023-02-14T11:16:30;96157.22;;;0.84;53.39
74921;BME280;63483;47.384;8.860;2023-02-14T11:21:38;96157.44;;;0.64;54.02
74921;BME280;63483;47.384;8.860;2023-02-14T11:24:37;96145.72;;;0.74;53.57
74921;BME280;63483;47.384;8.860;2023-02-14T11:27:13;96146.00;;;0.85;53.50
74921;BME280;63483;47.384;8.860;2023-02-14T11:32:11;96134.69;;;0.72;54.16
74921;BME280;63483;47.384;8.860;2023-02-14T11:34:45;96121.09;;;1.16;53.27
74921;BME280;63483;47.384;8.860;2023-02-14T11:39:49;96116.81;;;0.85;54.55
74921;BME280;63483;47.384;8.860;2023-02-14T11:42:32;96112.94;;;1.08;53.33
74921;BME280;63483;47.384;8.860;2023-02-14T11:44:58;96115.84;;;1.34;53.50
74921;BME280;63483;47.384;8.860;2023-02-14T11:47:28;96105.50;;;1.34;53.02
74921;BME280;63483;47.384;8.860;2023-02-14T11:52:26;96101.81;;;1.38;54.22
74921;BME280;63483;47.384;8.860;2023-02-14T11:54:54;96099.75;;;1.29;53.92
74921;BME280;63483;47.384;8.860;2023-02-14T11:57:34;96104.53;;;1.20;54.83
74921;BME280;63483;47.384;8.860;2023-02-14T12:00:10;96096.50;;;1.41;54.42
74921;BME280;63483;47.384;8.860;2023-02-14T12:02:40;96094.66;;;1.43;54.49
74921;BME280;63483;47.384;8.860;2023-02-14T12:05:17;96094.88;;;1.85;53.20
74921;BME280;63483;47.384;8.860;2023-02-14T12:07:45;96091.56;;;1.83;52.55
74921;BME280;63483;47.384;8.860;2023-02-14T12:13:03;96083.38;;;2.05;52.50
74921;BME280;63483;47.384;8.860;2023-02-14T12:18:36;96080.75;;;2.48;51.62
74921;BME280;63483;47.384;8.860;2023-02-14T12:24:15;96070.22;;;2.37;51.99
74921;BME280;63483;47.384;8.860;2023-02-14T12:27:00;96065.91;;;2.37;52.24
74921;BME280;63483;47.384;8.860;2023-02-14T12:29:44;96067.44;;;2.54;51.16
74921;BME280;63483;47.384;8.860;2023-02-14T12:32:23;96068.53;;;2.50;51.46
74921;BME280;63483;47.384;8.860;2023-02-14T12:34:50;96055.59;;;2.64;50.98
74921;BME280;63483;47.384;8.860;2023-02-14T12:37:33;96056.06;;;2.57;51.53
74921;BME280;63483;47.384;8.860;2023-02-14T12:40:23;96061.25;;;2.57;51.57
74921;BME280;63483;47.384;8.860;2023-02-14T12:43:18;96049.69;;;2.62;51.36
74921;BME280;63483;47.384;8.860;2023-02-14T12:46:17;96050.78;;;2.73;51.45
74921;BME280;63483;47.384;8.860;2023-02-14T12:51:29;96042.72;;;2.77;51.54
74921;BME280;63483;47.384;8.860;2023-02-14T12:54:37;96052.41;;;2.74;51.13
74921;BME280;63483;47.384;8.860;2023-02-14T12:58:08;96038.75;;;2.72;51.26
74921;BME280;63483;47.384;8.860;2023-02-14T13:13:53;96017.81;;;3.29;50.22
74921;BME280;63483;47.384;8.860;2023-02-14T13:16:31;96016.56;;;3.22;50.47
74921;BME280;63483;47.384;8.860;2023-02-14T13:19:36;96015.38;;;3.41;50.06
74921;BME280;63483;47.384;8.860;2023-02-14T13:21:54;96020.41;;;3.29;50.22
74921;BME280;63483;47.384;8.860;2023-02-14T13:24:23;96012.25;;;3.35;49.63
74921;BME280;63483;47.384;8.860;2023-02-14T13:26:59;95997.97;;;3.43;49.79
74921;BME280;63483;47.384;8.860;2023-02-14T13:29:31;95999.03;;;3.53;50.20
74921;BME280;63483;47.384;8.860;2023-02-14T13:32:01;96003.56;;;3.49;49.71
74921;BME280;63483;47.384;8.860;2023-02-14T13:34:31;95997.31;;;3.26;50.69
74921;BME280;63483;47.384;8.860;2023-02-14T13:36:59;96004.13;;;3.27;50.86
74921;BME280;63483;47.384;8.860;2023-02-14T13:41:56;96001.72;;;3.51;50.37
74921;BME280;63483;47.384;8.860;2023-02-14T13:47:14;96001.50;;;3.80;49.51
74921;BME280;63483;47.384;8.860;2023-02-14T13:49:46;95999.22;;;3.76;48.72
74921;BME280;63483;47.384;8.860;2023-02-14T13:52:13;95998.91;;;4.06;48.10
74921;BME280;63483;47.384;8.860;2023-02-14T13:55:02;96003.56;;;4.01;49.23
74921;BME280;63483;47.384;8.860;2023-02-14T14:02:52;95996.19;;;4.07;49.33
74921;BME280;63483;47.384;8.860;2023-02-14T14:10:59;95998.44;;;4.25;49.76
74921;BME280;63483;47.384;8.860;2023-02-14T14:19:00;95999.44;;;4.35;49.65
74921;BME280;63483;47.384;8.860;2023-02-14T14:21:35;95996.13;;;4.33;49.42
74921;BME280;63483;47.384;8.860;2023-02-14T14:24:16;95991.25;;;4.41;49.09
74921;BME280;63483;47.384;8.860;2023-02-14T14:31:49;95990.59;;;4.51;49.29
74921;BME280;63483;47.384;8.860;2023-02-14T14:34:21;95992.16;;;4.53;49.49
74921;BME280;63483;47.384;8.860;2023-02-14T14:36:47;95991.81;;;4.58;49.23
74921;BME280;63483;47.384;8.860;2023-02-14T14:39:24;95988.78;;;4.64;49.25
74921;BME280;63483;47.384;8.860;2023-02-14T14:41:51;95981.00;;;4.64;49.24
74921;BME280;63483;47.384;8.860;2023-02-14T14:44:16;95985.38;;;4.64;49.29
74921;BME280;63483;47.384;8.860;2023-02-14T14:46:41;95991.38;;;4.64;49.32
74921;BME280;63483;47.384;8.860;2023-02-14T14:49:08;95987.84;;;4.65;48.93
74921;BME280;63483;47.384;8.860;2023-02-14T14:51:35;95988.06;;;4.62;49.54
74921;BME280;63483;47.384;8.860;2023-02-14T14:54:17;95984.84;;;4.34;47.90
74921;BME280;63483;47.384;8.860;2023-02-14T14:56:54;95982.81;;;4.14;46.24
74921;BME280;63483;47.384;8.860;2023-02-14T14:59:29;95983.63;;;4.01;46.85
74921;BME280;63483;47.384;8.860;2023-02-14T15:01:56;95977.97;;;3.96;46.51
74921;BME280;63483;47.384;8.860;2023-02-14T15:04:27;95973.31;;;3.50;45.95
74921;BME280;63483;47.384;8.860;2023-02-14T15:06:58;95976.16;;;3.07;45.96
74921;BME280;63483;47.384;8.860;2023-02-14T15:09:40;95986.38;;;2.68;45.92
74921;BME280;63483;47.384;8.860;2023-02-14T15:12:07;95979.28;;;2.30;46.12
74921;BME280;63483;47.384;8.860;2023-02-14T15:14:51;95979.22;;;2.03;46.01
74921;BME280;63483;47.384;8.860;2023-02-14T15:17:24;95984.59;;;2.00;47.66
74921;BME280;63483;47.384;8.860;2023-02-14T15:19:54;95985.53;;;1.84;47.43
74921;BME280;63483;47.384;8.860;2023-02-14T15:22:25;95976.63;;;2.17;51.57
74921;BME280;63483;47.384;8.860;2023-02-14T15:24:53;95972.66;;;2.53;51.36
74921;BME280;63483;47.384;8.860;2023-02-14T15:27:24;95974.59;;;2.77;57.19
74921;BME280;63483;47.384;8.860;2023-02-14T15:32:18;95977.94;;;1.95;48.34
74921;BME280;63483;47.384;8.860;2023-02-14T15:34:44;95983.41;;;1.32;48.91
74921;BME280;63483;47.384;8.860;2023-02-14T15:37:11;95977.72;;;1.41;50.02
74921;BME280;63483;47.384;8.860;2023-02-14T15:39:46;95981.00;;;1.29;48.98
74921;BME280;63483;47.384;8.860;2023-02-14T15:42:19;95975.19;;;1.11;47.36
74921;BME280;63483;47.384;8.860;2023-02-14T15:44:47;95974.00;;;0.86;47.39
74921;BME280;63483;47.384;8.860;2023-02-14T15:47:13;95979.38;;;0.67;48.43
74921;BME280;63483;47.384;8.860;2023-02-14T15:49:42;95974.16;;;0.52;48.82